Time;durP1;ratioP1;P1;durP2;ratioP2;P2;SDS_P1;SDS_P2;PMS_P1;PMS_P2;Temp;Humidity;BMP_temperature;BMP_pressure;BME280_temperature;BME280_humidity;BME280_pressure;Samples;Min_cycle;Max_cycle;Signal;HPM_P1;HPM_P2
2023/01/25 00:09:33;;;;;;;5.07;2.50;;;;;;;;;;20997296;28;20106;-70
2023/01/25 00:19:43;;;;;;;6.70;2.27;;;;;;;;;;20997687;28;20044;-68
2023/01/25 00:29:48;;;;;;;3.53;2.00;;;;;;;;;;20996596;28;20057;-68
2023/01/25 00:39:52;;;;;;;4.18;2.15;;;;;;;;;;20995386;28;20431;-67
2023/01/25 00:49:55;;;;;;;3.47;1.80;;;;;;;;;;20996496;28;20052;-69
2023/01/25 00:59:57;;;;;;;6.88;2.35;;;;;;;;;;20994907;28;20049;-70
2023/01/25 01:10:05;;;;;;;3.30;2.03;;;;;;;;;;20995331;28;20132;-70
2023/01/25 01:20:09;;;;;;;4.90;1.92;;;;;;;;;;20995108;28;20400;-70
2023/01/25 01:30:14;;;;;;;4.65;2.30;;;;;;;;;;20996240;28;20499;-71
2023/01/25 01:40:18;;;;;;;3.45;1.80;;;;;;;;;;21008320;28;20071;-70
2023/01/25 01:50:23;;;;;;;6.28;3.03;;;;;;;;;;21007753;28;20048;-69
2023/01/25 02:00:29;;;;;;;4.03;2.17;;;;;;;;;;21007712;28;20083;-68
2023/01/25 02:10:32;;;;;;;4.70;2.00;;;;;;;;;;21006286;28;20052;-69
2023/01/25 02:20:37;;;;;;;4.10;2.05;;;;;;;;;;21004934;28;20047;-70
2023/01/25 02:30:54;;;;;;;4.93;2.20;;;;;;;;;;21004943;28;20059;-71
2023/01/25 02:41:18;;;;;;;5.97;2.53;;;;;;;;;;21002930;28;20109;-70
2023/01/25 02:51:24;;;;;;;4.40;2.25;;;;;;;;;;21003281;28;20052;-70
2023/01/25 03:01:28;;;;;;;4.30;2.30;;;;;;;;;;21002254;28;20076;-66
2023/01/25 03:11:31;;;;;;;5.43;2.67;;;;;;;;;;21001441;28;20052;-67
2023/01/25 03:21:42;;;;;;;4.15;2.08;;;;;;;;;;21000073;28;20048;-69
2023/01/25 03:31:53;;;;;;;4.55;2.53;;;;;;;;;;20999865;28;20052;-70
2023/01/25 03:41:58;;;;;;;3.63;2.08;;;;;;;;;;20998752;28;20056;-69
2023/01/25 03:52:02;;;;;;;4.18;2.42;;;;;;;;;;20997117;28;20048;-71
2023/01/25 04:02:06;;;;;;;4.22;2.42;;;;;;;;;;20998639;28;20075;-69
2023/01/25 04:12:27;;;;;;;3.97;2.15;;;;;;;;;;20996934;28;20110;-69
2023/01/25 04:22:49;;;;;;;4.78;2.75;;;;;;;;;;20998254;28;20531;-70
2023/01/25 04:33:10;;;;;;;5.47;2.45;;;;;;;;;;20996627;28;20436;-70
2023/01/25 04:43:32;;;;;;;4.10;2.08;;;;;;;;;;20995991;28;20444;-70
2023/01/25 04:53:50;;;;;;;7.43;2.92;;;;;;;;;;20996113;28;20105;-66
2023/01/25 05:03:53;;;;;;;3.97;2.00;;;;;;;;;;20995290;28;20040;-71
2023/01/25 05:13:55;;;;;;;5.75;2.03;;;;;;;;;;21010902;28;20052;-61
2023/01/25 05:23:57;;;;;;;4.18;2.20;;;;;;;;;;21009532;28;20040;-63
2023/01/25 05:34:00;;;;;;;5.13;2.42;;;;;;;;;;21008823;28;20135;-63
2023/01/25 05:44:02;;;;;;;3.92;2.30;;;;;;;;;;21008044;28;20052;-71
2023/01/25 05:54:04;;;;;;;3.83;1.95;;;;;;;;;;21007768;28;20421;-62
2023/01/25 06:04:07;;;;;;;6.80;2.53;;;;;;;;;;21006680;28;20048;-66
2023/01/25 06:14:10;;;;;;;4.20;1.80;;;;;;;;;;21006748;28;20444;-63
2023/01/25 06:24:12;;;;;;;5.32;1.83;;;;;;;;;;21005456;28;20040;-62
2023/01/25 06:34:14;;;;;;;4.28;2.17;;;;;;;;;;21004716;28;20048;-64
2023/01/25 06:44:16;;;;;;;4.22;2.50;;;;;;;;;;21004007;28;20048;-61
2023/01/25 06:54:17;;;;;;;4.13;2.67;;;;;;;;;;21003422;28;20415;-70
2023/01/25 07:04:20;;;;;;;5.45;2.63;;;;;;;;;;21003153;28;20408;-63
2023/01/25 07:14:22;;;;;;;4.95;2.80;;;;;;;;;;21000557;28;20056;-70
2023/01/25 07:24:28;;;;;;;6.18;2.97;;;;;;;;;;20999471;28;20119;-69
2023/01/25 07:34:30;;;;;;;6.85;2.65;;;;;;;;;;20998646;28;20052;-65
2023/01/25 07:44:33;;;;;;;6.72;3.28;;;;;;;;;;20998491;28;20550;-66
2023/01/25 07:54:35;;;;;;;7.18;3.38;;;;;;;;;;20997692;28;20059;-70
2023/01/25 08:04:37;;;;;;;7.35;3.70;;;;;;;;;;20996635;28;20071;-70
2023/01/25 08:14:39;;;;;;;4.90;2.92;;;;;;;;;;20994832;28;20105;-70
2023/01/25 08:24:42;;;;;;;5.95;2.65;;;;;;;;;;20996225;28;20044;-70
2023/01/25 08:34:44;;;;;;;6.85;3.00;;;;;;;;;;20995832;28;20084;-68
2023/01/25 08:44:46;;;;;;;6.25;2.50;;;;;;;;;;21008215;28;20053;-69
2023/01/25 08:54:48;;;;;;;6.53;2.97;;;;;;;;;;21011204;28;20059;-69
2023/01/25 09:04:50;;;;;;;7.18;2.92;;;;;;;;;;21011495;28;20044;-67
2023/01/25 09:14:52;;;;;;;6.97;3.58;;;;;;;;;;21010879;28;20067;-69
2023/01/25 09:24:55;;;;;;;7.13;3.42;;;;;;;;;;21009561;28;20413;-71
2023/01/25 09:34:57;;;;;;;9.15;2.72;;;;;;;;;;21008813;28;20048;-70
2023/01/25 09:45:18;;;;;;;6.55;3.28;;;;;;;;;;21008168;28;20098;-70
2023/01/25 09:55:20;;;;;;;;;;;;;;;;;;21008626;28;20066;-72
2023/01/25 10:05:23;;;;;;;3.40;1.95;;;;;;;;;;21008749;28;19921;-70
2023/01/25 10:15:36;;;;;;;5.53;2.45;;;;;;;;;;21020331;28;20048;-71
2023/01/25 10:25:45;;;;;;;3.83;2.35;;;;;;;;;;21016970;28;20044;-64
2023/01/25 10:35:49;;;;;;;4.65;2.35;;;;;;;;;;21005879;28;20140;-70
2023/01/25 10:45:51;;;;;;;3.65;2.00;;;;;;;;;;21005438;28;20055;-69
2023/01/25 10:56:12;;;;;;;4.13;2.35;;;;;;;;;;21004049;28;20507;-71
2023/01/25 11:06:14;;;;;;;4.03;2.08;;;;;;;;;;20971859;28;20040;-66
2023/01/25 11:16:22;;;;;;;4.00;1.77;;;;;;;;;;20994333;28;20497;-62
2023/01/25 11:26:25;;;;;;;4.15;2.53;;;;;;;;;;20934458;28;20098;-61
2023/01/25 11:36:36;;;;;;;4.50;2.38;;;;;;;;;;21001523;22;20096;-65
2023/01/25 11:46:48;;;;;;;7.07;2.20;;;;;;;;;;20942920;22;20103;-60
2023/01/25 11:56:53;;;;;;;4.60;2.00;;;;;;;;;;20834657;28;20050;-61
2023/01/25 12:07:05;;;;;;;3.95;1.55;;;;;;;;;;20832543;28;20162;-60
2023/01/25 12:17:20;;;;;;;5.93;2.05;;;;;;;;;;20832061;28;20049;-60
2023/01/25 12:27:35;;;;;;;3.63;1.73;;;;;;;;;;20831592;28;20132;-61
2023/01/25 12:37:39;;;;;;;3.10;1.98;;;;;;;;;;20830440;28;20053;-60
2023/01/25 12:48:11;;;;;;;3.67;1.50;;;;;;;;;;20829867;28;20089;-61
2023/01/25 12:58:22;;;;;;;2.88;0.80;;;;;;;;;;20658872;28;20054;-59
2023/01/25 13:08:34;;;;;;;1.70;1.10;;;;;;;;;;20658540;28;20073;-59
2023/01/25 13:18:36;;;;;;;2.00;0.95;;;;;;;;;;20642232;28;20050;-62
2023/01/25 13:28:38;;;;;;;1.38;0.70;;;;;;;;;;20713950;28;20053;-61
2023/01/25 13:38:41;;;;;;;1.63;0.52;;;;;;;;;;20844549;28;20274;-63
2023/01/25 13:48:59;;;;;;;0.55;0.20;;;;;;;;;;20843486;28;20072;-62
2023/01/25 13:59:02;;;;;;;1.55;0.45;;;;;;;;;;20842659;28;20100;-61
2023/01/25 14:09:07;;;;;;;4.68;0.75;;;;;;;;;;20841935;28;20056;-61
2023/01/25 14:19:28;;;;;;;2.85;1.20;;;;;;;;;;20840732;28;20057;-61
2023/01/25 14:29:32;;;;;;;4.20;1.10;;;;;;;;;;20840491;28;20053;-62
2023/01/25 14:39:35;;;;;;;1.92;0.82;;;;;;;;;;20839915;28;20057;-62
2023/01/25 14:49:37;;;;;;;1.98;0.68;;;;;;;;;;20838552;28;20131;-63
2023/01/25 14:59:46;;;;;;;1.20;0.63;;;;;;;;;;20837156;28;20049;-61
2023/01/25 15:10:02;;;;;;;1.37;0.67;;;;;;;;;;20837968;28;20053;-60
2023/01/25 15:20:05;;;;;;;3.05;0.70;;;;;;;;;;20835788;28;20045;-60
2023/01/25 15:30:12;;;;;;;4.05;0.70;;;;;;;;;;20834177;28;20053;-61
2023/01/25 15:40:14;;;;;;;0.95;0.35;;;;;;;;;;20834588;28;20048;-60
2023/01/25 15:50:17;;;;;;;1.48;0.90;;;;;;;;;;20831974;28;20107;-60
2023/01/25 16:00:22;;;;;;;0.60;0.45;;;;;;;;;;20833341;28;20485;-61
2023/01/25 16:10:24;;;;;;;1.48;0.60;;;;;;;;;;20832874;28;20107;-61
2023/01/25 16:20:26;;;;;;;0.82;0.32;;;;;;;;;;20832066;28;20394;-62
2023/01/25 16:30:31;;;;;;;0.77;0.40;;;;;;;;;;20832075;28;20080;-69
2023/01/25 16:40:37;;;;;;;2.13;0.88;;;;;;;;;;20831289;28;20056;-58
2023/01/25 16:50:39;;;;;;;3.30;1.52;;;;;;;;;;20829847;28;20053;-60
2023/01/25 17:00:41;;;;;;;3.38;1.30;;;;;;;;;;20831365;28;20056;-60
2023/01/25 17:10:43;;;;;;;4.25;1.58;;;;;;;;;;20845872;28;20511;-59
2023/01/25 17:20:45;;;;;;;6.68;1.95;;;;;;;;;;20845830;28;20050;-65
2023/01/25 17:30:47;;;;;;;3.95;1.25;;;;;;;;;;20845281;28;20045;-72
2023/01/25 17:40:49;;;;;;;5.65;2.85;;;;;;;;;;20843967;28;20053;-62
2023/01/25 17:51:03;;;;;;;4.95;1.45;;;;;;;;;;20842355;28;20054;-62
2023/01/25 18:01:11;;;;;;;4.18;1.90;;;;;;;;;;20843567;28;20053;-61
2023/01/25 18:11:15;;;;;;;5.05;1.50;;;;;;;;;;20839950;28;20060;-64
2023/01/25 18:21:23;;;;;;;5.75;1.63;;;;;;;;;;20830109;28;20448;-67
2023/01/25 18:31:26;;;;;;;5.72;2.15;;;;;;;;;;20823102;28;20053;-64
2023/01/25 18:41:28;;;;;;;4.57;2.70;;;;;;;;;;20825400;28;20052;-62
2023/01/25 18:51:29;;;;;;;7.22;3.10;;;;;;;;;;20833911;28;20068;-70
2023/01/25 19:01:31;;;;;;;5.63;3.90;;;;;;;;;;20838163;28;20053;-61
2023/01/25 19:11:32;;;;;;;7.25;3.38;;;;;;;;;;20835300;28;20056;-64
2023/01/25 19:21:33;;;;;;;7.00;3.63;;;;;;;;;;20829826;28;20052;-66
2023/01/25 19:31:36;;;;;;;7.93;4.80;;;;;;;;;;20830016;28;20045;-64
2023/01/25 19:41:40;;;;;;;8.38;4.07;;;;;;;;;;20835033;28;20057;-70
2023/01/25 19:51:44;;;;;;;9.50;4.75;;;;;;;;;;20818467;28;20061;-64
2023/01/25 20:01:46;;;;;;;11.07;4.97;;;;;;;;;;20817087;28;20111;-68
2023/01/25 20:11:48;;;;;;;10.20;5.03;;;;;;;;;;20834724;28;20060;-66
2023/01/25 20:21:51;;;;;;;15.27;5.38;;;;;;;;;;20830538;28;20042;-61
2023/01/25 20:31:55;;;;;;;10.07;5.30;;;;;;;;;;20831133;28;20053;-62
2023/01/25 20:41:57;;;;;;;11.20;5.40;;;;;;;;;;20830279;28;20088;-61
2023/01/25 20:52:00;;;;;;;11.27;5.95;;;;;;;;;;20829821;28;20505;-61
2023/01/25 21:02:02;;;;;;;11.95;6.50;;;;;;;;;;20829120;28;20100;-60
2023/01/25 21:12:04;;;;;;;10.20;5.70;;;;;;;;;;20829967;28;20076;-61
2023/01/25 21:22:06;;;;;;;14.23;6.05;;;;;;;;;;20829255;28;20370;-61
2023/01/25 21:32:08;;;;;;;13.38;6.88;;;;;;;;;;20828723;28;20049;-61
2023/01/25 21:42:10;;;;;;;13.52;6.90;;;;;;;;;;20828113;28;20129;-59
2023/01/25 21:52:12;;;;;;;17.08;10.80;;;;;;;;;;20837148;28;20111;-62
2023/01/25 22:02:14;;;;;;;16.80;8.00;;;;;;;;;;20842990;28;20144;-62
2023/01/25 22:12:16;;;;;;;15.43;7.00;;;;;;;;;;20839672;28;20053;-62
2023/01/25 22:22:18;;;;;;;11.10;5.80;;;;;;;;;;20839811;28;20080;-62
2023/01/25 22:32:20;;;;;;;19.38;10.30;;;;;;;;;;20839553;28;20461;-61
2023/01/25 22:42:22;;;;;;;9.75;5.60;;;;;;;;;;20839531;28;20049;-60
2023/01/25 22:52:25;;;;;;;8.93;4.90;;;;;;;;;;20837844;28;20049;-62
2023/01/25 23:02:27;;;;;;;6.55;3.75;;;;;;;;;;20838626;28;20052;-61
2023/01/25 23:12:29;;;;;;;6.78;4.00;;;;;;;;;;20838007;28;20088;-62
2023/01/25 23:22:31;;;;;;;11.07;5.63;;;;;;;;;;20835137;28;20141;-61
2023/01/25 23:32:33;;;;;;;9.82;4.57;;;;;;;;;;20835281;28;20056;-62
2023/01/25 23:42:35;;;;;;;6.22;3.40;;;;;;;;;;20835323;28;20100;-60
2023/01/25 23:52:38;;;;;;;6.00;3.42;;;;;;;;;;20833023;28;20069;-61
